Time;durP1;ratioP1;P1;durP2;ratioP2;P2;SDS_P1;SDS_P2;PMS_P1;PMS_P2;Temp;Humidity;BMP_temperature;BMP_pressure;BME280_temperature;BME280_humidity;BME280_pressure;Samples;Min_cycle;Max_cycle;Signal;HPM_P1;HPM_P2
2021/07/26 00:00:05;;;;;;;15.27;10.50;;;;;;;18.01;71.51;100724.50;4917618;29;20048;-81
2021/07/26 00:02:35;;;;;;;12.60;10.88;;;;;;;17.90;71.34;100714.63;4917170;29;20040;-82
2021/07/26 00:05:04;;;;;;;13.50;9.57;;;;;;;17.95;71.75;100724.91;4920741;29;20048;-82
2021/07/26 00:07:32;;;;;;;12.32;9.85;;;;;;;17.95;71.60;100728.41;4920611;29;20048;-82
2021/07/26 00:10:02;;;;;;;13.80;10.38;;;;;;;17.92;71.48;100708.28;4920957;29;20060;-82
2021/07/26 00:12:32;;;;;;;14.75;11.15;;;;;;;17.98;71.55;100722.91;4921175;29;20056;-82
2021/07/26 00:15:07;;;;;;;14.18;10.88;;;;;;;17.86;71.88;100719.28;4920332;29;20052;-82
2021/07/26 00:17:34;;;;;;;14.38;11.05;;;;;;;17.77;72.14;100704.91;4920961;29;20144;-82
2021/07/26 00:20:01;;;;;;;14.38;10.45;;;;;;;17.85;72.13;100717.59;4920696;29;20052;-82
2021/07/26 00:22:30;;;;;;;12.93;10.40;;;;;;;17.65;72.21;100686.41;4922479;29;20091;-83
2021/07/26 00:24:58;;;;;;;12.27;10.77;;;;;;;17.75;72.81;100712.09;4920876;29;20150;-82
2021/07/26 00:27:26;;;;;;;13.23;10.52;;;;;;;17.53;73.05;100694.22;4921505;29;20048;-82
2021/07/26 00:29:53;;;;;;;12.95;10.77;;;;;;;17.54;73.10;100692.44;4919810;29;20095;-83
2021/07/26 00:32:21;;;;;;;16.98;11.57;;;;;;;17.52;73.24;100689.91;4920912;29;20139;-82
2021/07/26 00:34:54;;;;;;;14.02;11.38;;;;;;;17.64;73.42;100717.25;4910977;29;20177;-82
2021/07/26 00:37:34;;;;;;;13.57;11.98;;;;;;;17.61;73.72;100709.53;4917819;29;20060;-82
2021/07/26 00:40:09;;;;;;;16.92;12.73;;;;;;;17.64;73.60;100713.75;4920642;29;20060;-82
2021/07/26 00:42:37;;;;;;;17.13;13.02;;;;;;;17.58;74.07;100707.13;4920826;29;20059;-83
2021/07/26 00:45:05;;;;;;;15.13;12.00;;;;;;;17.36;74.08;100684.81;4922511;29;20056;-82
2021/07/26 00:47:34;;;;;;;14.35;12.35;;;;;;;17.31;74.45;100672.88;4928739;29;20036;-82
2021/07/26 00:50:02;;;;;;;15.68;11.93;;;;;;;17.40;74.47;100688.94;4943808;29;20047;-81
2021/07/26 00:52:30;;;;;;;16.20;12.40;;;;;;;17.42;74.73;100702.88;4944094;28;20048;-81
2021/07/26 00:54:58;;;;;;;14.55;13.00;;;;;;;17.45;74.72;100712.38;4943844;28;20056;-82
2021/07/26 00:57:25;;;;;;;15.63;13.13;;;;;;;17.40;74.92;100715.31;4931340;28;20123;-82
2021/07/26 01:00:00;;;;;;;16.05;12.60;;;;;;;17.43;75.13;100708.97;4921390;29;20112;-82
2021/07/26 01:02:28;;;;;;;17.00;13.23;;;;;;;17.41;74.94;100705.63;4924908;29;20075;-82
2021/07/26 01:04:56;;;;;;;13.45;12.05;;;;;;;17.37;75.07;100698.84;4933506;29;20100;-82
2021/07/26 01:07:24;;;;;;;16.77;13.55;;;;;;;17.40;75.07;100711.84;4932415;29;20194;-82
2021/07/26 01:09:51;;;;;;;15.93;13.95;;;;;;;17.37;75.44;100704.13;4930296;29;20135;-83
2021/07/26 01:12:19;;;;;;;15.98;13.15;;;;;;;17.22;75.64;100704.22;4930327;29;20060;-83
2021/07/26 01:14:46;;;;;;;15.13;12.98;;;;;;;17.09;75.63;100688.34;4928179;29;20056;-81
2021/07/26 01:17:14;;;;;;;20.73;13.65;;;;;;;17.08;75.76;100696.34;4930624;29;20139;-82
2021/07/26 01:19:42;;;;;;;14.93;13.05;;;;;;;17.15;76.36;100720.53;4923532;29;20056;-82
2021/07/26 01:22:10;;;;;;;13.90;12.50;;;;;;;17.07;76.37;100721.03;4923188;29;20044;-82
2021/07/26 01:24:38;;;;;;;15.20;13.40;;;;;;;16.98;76.33;100697.88;4922833;29;20052;-83
2021/07/26 01:27:06;;;;;;;15.98;13.38;;;;;;;17.08;76.07;100699.00;4922683;29;20413;-82
2021/07/26 01:29:33;;;;;;;15.57;13.18;;;;;;;17.18;76.04;100718.53;4921601;29;20048;-82
2021/07/26 01:32:03;;;;;;;17.25;13.23;;;;;;;17.16;76.32;100725.69;4921722;29;20048;-82
2021/07/26 01:34:47;;;;;;;15.55;12.48;;;;;;;17.05;76.40;100709.72;4913960;29;20052;-82
2021/07/26 01:37:43;;;;;;;15.27;12.32;;;;;;;16.95;76.56;100705.06;4902170;29;20056;-83
2021/07/26 01:40:13;;;;;;;16.92;13.52;;;;;;;17.01;76.45;100716.16;4901507;29;20063;-83
2021/07/26 01:42:44;;;;;;;17.30;12.50;;;;;;;17.05;76.43;100718.50;4906506;29;20044;-82
2021/07/26 01:45:12;;;;;;;16.30;14.00;;;;;;;17.02;76.17;100725.78;4920732;29;20052;-84
2021/07/26 01:47:48;;;;;;;17.70;13.57;;;;;;;17.05;76.26;100722.91;4919788;29;20044;-82
2021/07/26 01:50:23;;;;;;;17.98;12.70;;;;;;;17.17;75.97;100731.81;4919127;29;20040;-83
2021/07/26 01:52:51;;;;;;;15.27;13.27;;;;;;;17.10;75.76;100703.22;4910379;29;20056;-83
2021/07/26 01:55:22;;;;;;;17.40;12.77;;;;;;;17.31;75.55;100728.28;4920415;29;20055;-83
2021/07/26 01:57:53;;;;;;;16.63;12.90;;;;;;;17.25;75.51;100711.91;4919213;29;20056;-83
2021/07/26 02:00:21;;;;;;;14.18;12.55;;;;;;;17.19;75.75;100719.41;4919813;29;20048;-83
2021/07/26 02:02:48;;;;;;;15.27;13.25;;;;;;;17.22;75.84;100720.03;4922816;29;20052;-83
2021/07/26 02:05:17;;;;;;;14.43;12.93;;;;;;;17.34;75.55;100726.28;4925038;29;20048;-83
2021/07/26 02:07:46;;;;;;;17.02;12.77;;;;;;;17.35;75.60;100719.22;4927951;29;20071;-83
2021/07/26 02:10:13;;;;;;;15.98;13.00;;;;;;;17.49;75.30;100726.22;4927576;29;20086;-83
2021/07/26 02:12:43;;;;;;;15.43;12.75;;;;;;;17.54;74.84;100735.53;4922423;29;20055;-83
2021/07/26 02:15:11;;;;;;;16.40;13.05;;;;;;;17.52;74.89;100733.94;4919432;29;20052;-83
2021/07/26 02:17:40;;;;;;;16.08;13.35;;;;;;;17.51;74.75;100733.06;4906194;29;20375;-83
2021/07/26 02:20:09;;;;;;;15.40;12.30;;;;;;;17.45;75.07;100728.19;4914945;29;20052;-83
2021/07/26 02:22:37;;;;;;;17.08;12.30;;;;;;;17.40;74.96;100711.84;4919097;29;20130;-83
2021/07/26 02:25:05;;;;;;;16.13;12.55;;;;;;;17.46;75.16;100735.19;4918444;29;20052;-83
2021/07/26 02:27:33;;;;;;;15.85;13.38;;;;;;;17.21;75.46;100713.06;4918748;29;20422;-83
2021/07/26 02:30:00;;;;;;;17.13;13.07;;;;;;;17.42;75.44;100745.09;4918400;29;20056;-83
2021/07/26 02:32:31;;;;;;;16.33;12.57;;;;;;;17.35;75.57;100727.13;4918314;29;20516;-83
2021/07/26 02:35:01;;;;;;;15.45;12.88;;;;;;;17.19;75.44;100720.22;4916992;29;20532;-83
2021/07/26 02:37:37;;;;;;;;;;;;;;;17.22;76.26;100748.19;4918021;29;20048;-83
2021/07/26 02:40:11;;;;;;;16.25;13.38;;;;;;;16.98;76.53;100714.56;4916177;29;19963;-83
2021/07/26 02:43:08;;;;;;;15.82;13.50;;;;;;;17.02;76.52;100717.84;4909958;29;20056;-82
2021/07/26 02:45:39;;;;;;;14.77;12.27;;;;;;;17.08;76.44;100714.81;4906642;29;20099;-82
2021/07/26 02:48:08;;;;;;;15.93;13.25;;;;;;;16.95;76.64;100702.44;4917298;29;20505;-82
2021/07/26 02:50:35;;;;;;;17.10;13.20;;;;;;;16.97;77.14;100723.44;4918150;29;20044;-82
2021/07/26 02:53:03;;;;;;;19.05;14.30;;;;;;;16.84;77.37;100717.22;4918059;29;20051;-83
2021/07/26 02:55:31;;;;;;;16.38;12.77;;;;;;;16.94;77.75;100734.16;4917395;29;20047;-82
2021/07/26 02:58:00;;;;;;;17.25;13.85;;;;;;;16.65;77.84;100684.97;4917602;29;20057;-83
2021/07/26 03:00:27;;;;;;;15.30;13.57;;;;;;;16.89;77.75;100731.78;4917105;29;20401;-83
2021/07/26 03:02:55;;;;;;;15.00;12.15;;;;;;;16.77;77.78;100722.03;4916667;29;20113;-83
2021/07/26 03:05:22;;;;;;;14.85;13.00;;;;;;;16.85;77.91;100737.38;4917796;29;20048;-83
2021/07/26 03:07:50;;;;;;;16.20;13.43;;;;;;;16.80;77.97;100740.28;4917973;29;20489;-82
2021/07/26 03:10:18;;;;;;;15.48;12.88;;;;;;;16.70;78.31;100726.00;4917678;29;20086;-82
2021/07/26 03:12:46;;;;;;;15.48;13.40;;;;;;;16.59;78.62;100724.91;4923936;28;20032;-80
2021/07/26 03:15:14;;;;;;;18.15;13.88;;;;;;;16.64;78.54;100741.25;4942210;28;20042;-80
2021/07/26 03:17:43;;;;;;;16.45;13.75;;;;;;;16.60;78.63;100736.28;4940913;28;20040;-82
2021/07/26 03:20:11;;;;;;;15.85;13.35;;;;;;;16.63;78.66;100742.19;4941558;28;20033;-80
2021/07/26 03:22:58;;;;;;;18.45;13.77;;;;;;;16.61;78.19;100728.28;4920963;29;20067;-81
2021/07/26 03:25:27;;;;;;;19.25;13.82;;;;;;;16.50;78.49;100712.28;4915670;29;20127;-81
2021/07/26 03:27:54;;;;;;;17.00;14.65;;;;;;;16.51;78.74;100705.25;4917112;29;20512;-81
2021/07/26 03:30:22;;;;;;;17.85;13.85;;;;;;;16.49;78.52;100708.00;4916556;29;20055;-81
2021/07/26 03:32:50;;;;;;;17.63;14.55;;;;;;;16.44;79.18;100720.59;4916993;29;20087;-82
2021/07/26 03:35:18;;;;;;;16.85;13.60;;;;;;;16.56;79.04;100729.50;4917257;29;20122;-81
2021/07/26 03:37:46;;;;;;;16.58;13.57;;;;;;;16.58;78.95;100743.44;4916428;29;20045;-81
2021/07/26 03:40:14;;;;;;;20.05;14.63;;;;;;;16.52;79.11;100741.19;4916471;29;20063;-81
2021/07/26 03:42:43;;;;;;;17.35;14.02;;;;;;;16.49;79.40;100736.97;4896458;29;20048;-82
2021/07/26 03:45:13;;;;;;;20.92;14.25;;;;;;;16.47;79.71;100731.78;4914830;29;20052;-82
2021/07/26 03:47:41;;;;;;;16.85;14.40;;;;;;;16.38;80.11;100721.84;4916826;29;20059;-82
2021/07/26 03:50:12;;;;;;;20.58;15.18;;;;;;;16.36;80.31;100731.59;4917581;29;20056;-82
2021/07/26 03:52:45;;;;;;;17.60;15.20;;;;;;;16.30;80.32;100732.81;4897272;29;20049;-82
2021/07/26 03:55:14;;;;;;;16.42;13.32;;;;;;;16.13;80.68;100710.16;4909675;29;20059;-82
2021/07/26 03:57:42;;;;;;;16.20;14.23;;;;;;;16.17;80.40;100722.22;4915759;29;20131;-83
2021/07/26 04:00:08;;;;;;;17.63;14.48;;;;;;;16.21;80.72;100736.03;4922524;29;20051;-83
2021/07/26 04:02:36;;;;;;;16.52;14.60;;;;;;;16.11;80.62;100727.00;4918905;29;20080;-83
2021/07/26 04:05:03;;;;;;;18.40;13.85;;;;;;;16.10;80.62;100715.63;4898529;29;20055;-83
2021/07/26 04:07:34;;;;;;;17.38;14.93;;;;;;;16.23;80.53;100728.03;4907882;29;20052;-83
2021/07/26 04:10:04;;;;;;;19.35;14.23;;;;;;;16.17;80.43;100727.47;4916596;29;20055;-83
2021/07/26 04:12:33;;;;;;;17.02;14.10;;;;;;;16.17;80.00;100716.09;4915936;29;20545;-83
2021/07/26 04:14:59;;;;;;;19.63;14.15;;;;;;;16.13;80.14;100725.13;4915857;29;20048;-83
2021/07/26 04:17:25;;;;;;;20.25;15.15;;;;;;;15.95;80.44;100711.28;4912757;29;20459;-83
2021/07/26 04:19:52;;;;;;;19.60;15.27;;;;;;;15.88;80.94;100710.81;4912763;29;20052;-82
2021/07/26 04:22:22;;;;;;;17.10;14.27;;;;;;;15.94;81.41;100734.16;4916445;29;20147;-83
2021/07/26 04:24:48;;;;;;;18.75;15.05;;;;;;;15.74;81.36;100706.34;4916309;29;20052;-82
2021/07/26 04:27:15;;;;;;;20.27;15.13;;;;;;;15.94;80.97;100736.78;4916954;29;20098;-82
2021/07/26 04:29:41;;;;;;;19.52;16.40;;;;;;;15.78;81.18;100707.88;4917189;29;20048;-82
2021/07/26 04:32:10;;;;;;;18.20;15.02;;;;;;;15.89;81.12;100725.66;4916807;29;20056;-82
2021/07/26 04:34:36;;;;;;;17.95;14.50;;;;;;;15.98;80.80;100740.91;4917575;29;20055;-82
2021/07/26 04:37:02;;;;;;;18.15;14.18;;;;;;;15.92;80.81;100732.53;4919627;29;20048;-83
2021/07/26 04:39:28;;;;;;;22.65;15.52;;;;;;;15.97;81.04;100744.47;4918466;29;20062;-83
2021/07/26 04:41:55;;;;;;;18.38;15.63;;;;;;;15.92;81.56;100729.91;4916974;29;20099;-82
2021/07/26 04:44:22;;;;;;;18.15;14.43;;;;;;;15.94;81.25;100728.88;4916111;29;20059;-83
2021/07/26 04:46:47;;;;;;;21.70;16.00;;;;;;;15.98;81.75;100732.19;4916817;29;20052;-82
2021/07/26 04:49:14;;;;;;;21.42;15.23;;;;;;;15.94;81.77;100734.16;4917962;29;20485;-82
2021/07/26 04:51:40;;;;;;;21.00;16.02;;;;;;;15.93;81.92;100734.22;4920290;29;20059;-83
2021/07/26 04:54:06;;;;;;;18.77;16.38;;;;;;;15.92;81.36;100719.38;4921094;29;20048;-83
2021/07/26 04:56:32;;;;;;;21.42;15.93;;;;;;;15.77;81.04;100681.63;4921856;29;20123;-82
2021/07/26 04:58:58;;;;;;;22.65;16.05;;;;;;;16.07;81.14;100717.59;4930566;29;20052;-82
2021/07/26 05:01:24;;;;;;;22.30;16.13;;;;;;;16.31;80.85;100744.22;4942853;28;20036;-81
2021/07/26 05:03:50;;;;;;;20.65;15.68;;;;;;;16.26;80.74;100719.94;4941862;28;20047;-81
2021/07/26 05:06:18;;;;;;;20.45;15.00;;;;;;;16.51;79.91;100744.78;4925360;29;20600;-82
2021/07/26 05:08:45;;;;;;;19.63;15.82;;;;;;;16.52;80.29;100738.56;4923221;29;20052;-82
2021/07/26 05:11:10;;;;;;;21.63;16.27;;;;;;;16.54;80.30;100742.78;4923869;29;20147;-82
2021/07/26 05:13:36;;;;;;;23.75;17.83;;;;;;;16.62;80.57;100748.44;4923846;29;20516;-82
2021/07/26 05:16:03;;;;;;;25.08;16.73;;;;;;;16.69;80.45;100748.03;4923352;29;20504;-82
2021/07/26 05:18:29;;;;;;;25.38;18.05;;;;;;;16.64;80.64;100757.06;4922899;29;20043;-82
2021/07/26 05:20:55;;;;;;;27.63;16.95;;;;;;;16.69;80.30;100751.50;4923720;29;20052;-82
2021/07/26 05:23:24;;;;;;;21.35;16.58;;;;;;;16.88;79.76;100759.13;4922601;29;20100;-83
2021/07/26 05:25:51;;;;;;;22.33;17.05;;;;;;;16.98;79.07;100759.41;4922310;29;20063;-82
2021/07/26 05:28:17;;;;;;;21.70;16.48;;;;;;;16.99;79.37;100769.00;4920178;29;20056;-83
2021/07/26 05:30:43;;;;;;;21.10;16.55;;;;;;;17.01;79.18;100761.00;4921576;29;20044;-83
2021/07/26 05:33:09;;;;;;;21.40;16.65;;;;;;;17.06;78.87;100753.63;4922202;29;20139;-82
2021/07/26 05:35:35;;;;;;;22.35;18.08;;;;;;;17.17;78.62;100766.94;4920972;29;20107;-82
2021/07/26 05:38:05;;;;;;;21.60;17.23;;;;;;;17.10;78.12;100737.50;4921128;29;20052;-83
2021/07/26 05:40:31;;;;;;;23.20;17.73;;;;;;;17.24;78.16;100759.50;4920815;29;20056;-82
2021/07/26 05:42:58;;;;;;;23.55;17.98;;;;;;;17.12;78.18;100738.25;4920697;29;20475;-82
2021/07/26 05:45:24;;;;;;;22.13;17.42;;;;;;;17.04;78.36;100727.34;4920116;29;20142;-83
2021/07/26 05:47:50;;;;;;;22.63;17.48;;;;;;;17.10;78.21;100739.28;4921367;29;20054;-84
2021/07/26 05:50:18;;;;;;;22.23;17.95;;;;;;;17.15;78.44;100752.19;4920363;29;20055;-83
2021/07/26 05:52:46;;;;;;;23.95;18.67;;;;;;;16.93;79.08;100730.69;4919933;29;20075;-82
2021/07/26 05:55:15;;;;;;;23.33;18.42;;;;;;;16.96;79.08;100740.19;4918953;29;20056;-83
2021/07/26 05:57:47;;;;;;;29.05;20.67;;;;;;;16.95;78.89;100728.81;4916326;29;20036;-82
2021/07/26 06:00:23;;;;;;;24.80;19.75;;;;;;;17.18;78.79;100752.81;4917663;29;20095;-83
2021/07/26 06:02:50;;;;;;;31.05;21.33;;;;;;;17.23;78.57;100769.19;4920014;29;20056;-83
2021/07/26 06:05:17;;;;;;;24.42;19.73;;;;;;;17.40;78.21;100770.72;4922833;29;20056;-84
2021/07/26 06:07:43;;;;;;;24.73;19.25;;;;;;;17.47;77.73;100747.44;4938807;29;20051;-84
2021/07/26 06:10:10;;;;;;;23.63;16.30;;;;;;;17.77;77.85;100757.72;4924505;29;20048;-82
2021/07/26 06:12:36;;;;;;;26.08;19.45;;;;;;;17.92;76.37;100755.81;4935492;28;20042;-83
2021/07/26 06:15:02;;;;;;;27.20;20.80;;;;;;;17.69;76.47;100717.78;4941726;28;20052;-82
2021/07/26 06:17:28;;;;;;;28.65;20.80;;;;;;;17.87;76.38;100725.41;4941157;28;20051;-83
2021/07/26 06:19:55;;;;;;;29.23;20.30;;;;;;;18.12;75.94;100747.53;4927760;29;20044;-83
2021/07/26 06:22:23;;;;;;;25.15;20.50;;;;;;;18.26;75.43;100749.19;4918100;29;20409;-83
2021/07/26 06:24:49;;;;;;;28.05;20.30;;;;;;;18.36;75.29;100756.38;4917386;29;20051;-83
2021/07/26 06:27:15;;;;;;;26.27;20.50;;;;;;;18.28;75.22;100732.28;4918517;29;20332;-83
2021/07/26 06:29:41;;;;;;;24.70;20.13;;;;;;;18.31;75.18;100725.94;4918774;29;20059;-83
2021/07/26 06:32:07;;;;;;;28.25;20.50;;;;;;;18.20;75.31;100711.69;4918284;29;20051;-83
2021/07/26 06:34:34;;;;;;;26.92;21.00;;;;;;;18.61;74.86;100753.81;4918656;29;20543;-83
2021/07/26 06:37:00;;;;;;;28.42;22.30;;;;;;;18.61;74.54;100752.00;4912187;29;20139;-82
2021/07/26 06:39:26;;;;;;;27.55;20.50;;;;;;;18.67;74.68;100756.84;4917634;29;20055;-82
2021/07/26 06:41:52;;;;;;;26.55;21.00;;;;;;;18.77;74.31;100748.25;4918297;29;20052;-83
2021/07/26 06:44:19;;;;;;;30.98;22.88;;;;;;;18.78;74.35;100744.66;4918796;29;20377;-82
2021/07/26 06:46:45;;;;;;;30.63;22.25;;;;;;;18.79;73.92;100731.31;4917042;29;20052;-82
2021/07/26 06:49:11;;;;;;;26.55;21.67;;;;;;;18.91;73.45;100744.59;4918093;29;21469;-83
2021/07/26 06:51:37;;;;;;;28.40;22.45;;;;;;;19.00;73.41;100755.38;4918679;29;20465;-82
2021/07/26 06:54:03;;;;;;;27.55;22.73;;;;;;;19.08;73.17;100753.97;4919149;29;20072;-83
2021/07/26 06:56:32;;;;;;;28.17;22.70;;;;;;;19.07;73.28;100760.25;4925246;29;20048;-82
2021/07/26 06:58:58;;;;;;;23.38;19.42;;;;;;;19.15;72.73;100742.00;4914140;29;20106;-83
2021/07/26 07:01:25;;;;;;;27.50;21.30;;;;;;;19.32;72.25;100748.69;4921639;29;20134;-84
2021/07/26 07:03:52;;;;;;;24.35;20.98;;;;;;;19.53;71.33;100754.19;4920123;29;20056;-83
2021/07/26 07:06:20;;;;;;;24.58;20.50;;;;;;;19.52;71.00;100747.22;4919836;29;20059;-84
2021/07/26 07:08:46;;;;;;;25.20;22.10;;;;;;;19.64;71.45;100761.31;4918450;29;20052;-84
2021/07/26 07:11:15;;;;;;;23.17;20.67;;;;;;;19.73;70.98;100751.84;4919389;29;20048;-83
2021/07/26 07:13:44;;;;;;;25.90;21.80;;;;;;;19.74;70.62;100745.56;4917566;29;20048;-83
2021/07/26 07:16:19;;;;;;;25.77;21.52;;;;;;;19.84;70.45;100749.25;4911402;29;20052;-83
2021/07/26 07:19:02;;;;;;;27.10;21.33;;;;;;;19.68;70.75;100744.25;4920418;29;20055;-83
2021/07/26 07:21:31;;;;;;;23.48;20.55;;;;;;;19.76;70.48;100765.69;4919766;29;20051;-83
2021/07/26 07:24:00;;;;;;;27.45;21.30;;;;;;;19.82;69.56;100767.00;4933116;29;20048;-82
2021/07/26 07:26:27;;;;;;;27.88;22.58;;;;;;;19.96;69.04;100773.94;4930783;29;20063;-83
2021/07/26 07:28:53;;;;;;;29.23;22.08;;;;;;;19.95;69.57;100770.44;4929015;29;20052;-80
2021/07/26 07:31:26;;;;;;;27.08;22.98;;;;;;;19.99;68.97;100771.06;4931670;29;20052;-81
2021/07/26 07:33:58;;;;;;;30.52;23.13;;;;;;;20.10;68.64;100775.53;4920204;29;20485;-82
2021/07/26 07:36:27;;;;;;;26.67;22.02;;;;;;;20.04;68.58;100768.06;4919089;29;20055;-81
2021/07/26 07:38:56;;;;;;;24.33;21.63;;;;;;;20.04;68.83;100779.47;4915393;29;20052;-79
2021/07/26 07:41:23;;;;;;;26.85;23.25;;;;;;;19.82;69.08;100757.28;4919718;29;20458;-80
2021/07/26 07:43:49;;;;;;;29.08;22.58;;;;;;;20.04;68.90;100773.34;4919803;29;20052;-86
2021/07/26 07:46:19;;;;;;;26.77;23.25;;;;;;;20.06;68.22;100769.63;4919021;29;20469;-86
2021/07/26 07:48:49;;;;;;;32.15;25.67;;;;;;;19.91;68.71;100784.91;4919176;29;20055;-82
2021/07/26 07:51:16;;;;;;;27.98;23.65;;;;;;;19.84;68.58;100767.78;4910108;29;20049;-81
2021/07/26 07:53:47;;;;;;;30.77;23.75;;;;;;;19.97;68.00;100778.28;4912049;29;20052;-81
2021/07/26 07:56:13;;;;;;;28.73;24.80;;;;;;;19.86;67.72;100754.41;4898496;29;20441;-85
2021/07/26 07:58:41;;;;;;;27.05;23.23;;;;;;;20.05;67.72;100783.00;4917662;29;20127;-81
2021/07/26 08:01:07;;;;;;;35.63;25.67;;;;;;;20.09;67.74;100784.44;4916658;29;20055;-86
2021/07/26 08:03:35;;;;;;;34.55;28.33;;;;;;;19.76;69.03;100773.63;4917720;29;20136;-84
2021/07/26 08:06:02;;;;;;;34.88;29.80;;;;;;;19.76;69.18;100760.41;4919402;29;20058;-87
2021/07/26 08:08:30;;;;;;;34.63;29.65;;;;;;;19.92;69.03;100777.78;4918871;29;20087;-87
2021/07/26 08:10:56;;;;;;;35.33;31.50;;;;;;;20.01;68.83;100774.44;4917564;29;20139;-85
2021/07/26 08:13:23;;;;;;;36.53;31.92;;;;;;;20.35;68.09;100779.78;4915581;29;20409;-83
2021/07/26 08:15:52;;;;;;;36.00;30.67;;;;;;;20.46;67.71;100781.59;4918108;29;20052;-82
2021/07/26 08:18:21;;;;;;;36.05;30.67;;;;;;;20.47;67.47;100785.94;4917862;29;20138;-81
2021/07/26 08:20:47;;;;;;;35.10;31.55;;;;;;;20.60;66.77;100751.31;4916981;29;20056;-81
2021/07/26 08:23:13;;;;;;;32.47;28.55;;;;;;;21.22;64.82;100779.03;4901928;29;20048;-83
2021/07/26 08:25:40;;;;;;;36.28;29.80;;;;;;;21.32;64.21;100751.75;4921792;29;20055;-82
2021/07/26 08:28:06;;;;;;;32.88;29.27;;;;;;;21.44;64.46;100766.66;4919708;29;20052;-89
2021/07/26 08:30:34;;;;;;;33.40;29.42;;;;;;;21.56;63.54;100764.81;4922249;29;20054;-88
2021/07/26 08:33:02;;;;;;;31.40;27.85;;;;;;;21.63;63.40;100749.19;4922591;29;20095;-86
2021/07/26 08:35:31;;;;;;;33.90;30.27;;;;;;;21.41;63.47;100773.06;4921448;29;20044;-80
2021/07/26 08:37:57;;;;;;;32.85;29.27;;;;;;;21.37;64.14;100774.31;4921978;29;20052;-83
2021/07/26 08:40:25;;;;;;;32.45;29.00;;;;;;;21.39;63.70;100769.69;4920652;29;20056;-81
2021/07/26 08:42:53;;;;;;;32.33;28.77;;;;;;;21.33;63.76;100762.22;4922127;29;20059;-83
2021/07/26 08:45:22;;;;;;;34.13;30.48;;;;;;;21.43;63.26;100763.19;4922022;29;20067;-84
2021/07/26 08:47:49;;;;;;;34.40;30.73;;;;;;;21.48;63.19;100783.19;4905175;29;20131;-82
2021/07/26 08:50:19;;;;;;;33.28;29.58;;;;;;;21.74;61.91;100738.53;4921451;29;20055;-83
2021/07/26 08:52:49;;;;;;;32.17;28.77;;;;;;;22.28;60.73;100771.13;4911645;29;20058;-83
2021/07/26 08:55:18;;;;;;;32.88;28.15;;;;;;;22.71;59.43;100772.69;4922913;29;20052;-82
2021/07/26 08:57:46;;;;;;;31.63;28.27;;;;;;;23.02;57.86;100771.78;4920562;29;20051;-81
2021/07/26 09:00:17;;;;;;;31.50;28.27;;;;;;;23.17;57.01;100746.47;4920926;29;20048;-83
2021/07/26 09:02:43;;;;;;;30.33;27.13;;;;;;;23.45;56.74;100756.44;4922838;29;20052;-83
2021/07/26 09:05:10;;;;;;;28.95;25.95;;;;;;;23.75;55.88;100766.03;4929279;29;20047;-82
2021/07/26 09:07:41;;;;;;;29.13;26.05;;;;;;;23.28;56.65;100763.31;4931472;29;20473;-83
2021/07/26 09:10:19;;;;;;;31.23;28.05;;;;;;;22.71;58.23;100782.50;4936998;29;20057;-83
2021/07/26 09:12:49;;;;;;;31.60;28.45;;;;;;;22.32;59.52;100779.69;4935566;29;20052;-84
2021/07/26 09:15:32;;;;;;;31.27;27.70;;;;;;;22.22;60.15;100772.47;4937641;29;20052;-84
2021/07/26 09:18:05;;;;;;;30.55;27.45;;;;;;;22.30;59.61;100766.53;4932289;29;20155;-83
2021/07/26 09:20:39;;;;;;;28.77;25.77;;;;;;;22.34;59.02;100783.06;4932358;29;20060;-81
2021/07/26 09:23:18;;;;;;;28.58;25.55;;;;;;;22.20;59.10;100774.44;4924913;29;20048;-82
2021/07/26 09:25:46;;;;;;;28.77;25.77;;;;;;;21.95;59.06;100748.28;4922735;29;20052;-81
2021/07/26 09:28:17;;;;;;;27.33;24.45;;;;;;;22.55;58.66;100780.34;4927504;29;20056;-85
2021/07/26 09:30:49;;;;;;;28.70;25.58;;;;;;;22.90;57.34;100775.53;4939828;29;20078;-79
2021/07/26 09:33:16;;;;;;;28.25;25.45;;;;;;;23.02;57.20;100782.41;4942459;28;20100;-81
2021/07/26 09:36:01;;;;;;;28.10;25.08;;;;;;;23.28;56.06;100774.78;4941861;28;20064;-82
2021/07/26 09:38:28;;;;;;;27.92;24.58;;;;;;;23.09;56.33;100772.06;4927502;28;20056;-85
2021/07/26 09:40:55;;;;;;;25.48;22.70;;;;;;;23.38;55.98;100771.28;4922440;29;20052;-86
2021/07/26 09:43:24;;;;;;;24.35;21.98;;;;;;;23.57;54.92;100757.09;4920446;29;20183;-85
2021/07/26 09:45:51;;;;;;;24.65;22.05;;;;;;;23.72;53.96;100770.84;4919384;29;20060;-85
2021/07/26 09:48:19;;;;;;;26.27;23.42;;;;;;;23.39;54.69;100772.94;4910580;29;20067;-85
2021/07/26 09:50:50;;;;;;;24.15;21.70;;;;;;;23.29;54.57;100741.84;4920841;29;20052;-83
2021/07/26 09:53:17;;;;;;;24.95;22.13;;;;;;;23.29;55.07;100775.59;4920871;29;20067;-84
2021/07/26 09:55:48;;;;;;;23.25;20.98;;;;;;;23.19;56.05;100772.94;4920760;29;20048;-84
2021/07/26 09:58:19;;;;;;;24.13;21.25;;;;;;;23.00;55.70;100777.25;4919644;29;20048;-83
2021/07/26 10:00:46;;;;;;;23.77;21.48;;;;;;;22.98;55.85;100767.72;4916204;29;20508;-83
2021/07/26 10:03:14;;;;;;;25.88;23.17;;;;;;;23.27;53.96;100746.47;4919916;29;20044;-86
2021/07/26 10:05:43;;;;;;;21.10;18.92;;;;;;;24.01;53.07;100767.28;4919615;29;20415;-80
2021/07/26 10:08:11;;;;;;;22.27;20.00;;;;;;;24.33;50.43;100768.69;4919700;29;20048;-81
2021/07/26 10:10:39;;;;;;;20.38;18.33;;;;;;;24.44;50.67;100756.03;4919993;29;20508;-81
2021/07/26 10:13:07;;;;;;;22.25;20.15;;;;;;;24.88;50.58;100775.91;4921505;29;20059;-84
2021/07/26 10:15:35;;;;;;;23.73;21.25;;;;;;;24.81;50.24;100767.66;4920234;29;20115;-84
2021/07/26 10:18:10;;;;;;;23.63;20.98;;;;;;;24.26;51.63;100769.28;4918604;29;20062;-84
2021/07/26 10:20:56;;;;;;;21.88;19.67;;;;;;;23.61;52.72;100771.84;4936157;29;20065;-81
2021/07/26 10:23:37;;;;;;;22.52;20.10;;;;;;;23.06;53.58;100773.19;4939023;29;20047;-84
2021/07/26 10:26:05;;;;;;;22.33;19.98;;;;;;;23.18;53.29;100776.59;4920734;29;20048;-83
2021/07/26 10:28:37;;;;;;;21.02;18.92;;;;;;;23.50;52.08;100775.47;4922813;29;20544;-85
2021/07/26 10:31:27;;;;;;;19.80;17.52;;;;;;;23.92;49.98;100769.81;4918978;29;20091;-85
2021/07/26 10:34:11;;;;;;;17.35;15.60;;;;;;;24.01;48.88;100769.94;4919951;29;20433;-81
2021/07/26 10:36:40;;;;;;;20.00;16.43;;;;;;;23.93;49.21;100771.50;4918417;29;20044;-78
2021/07/26 10:39:12;;;;;;;20.10;16.55;;;;;;;24.04;49.43;100762.50;4918414;29;20238;-80
2021/07/26 10:41:45;;;;;;;17.42;15.52;;;;;;;24.39;48.22;100763.63;4918504;29;20048;-81
2021/07/26 10:44:17;;;;;;;18.08;16.17;;;;;;;24.28;48.58;100762.00;4920480;29;20048;-84
2021/07/26 10:47:16;;;;;;;16.52;14.32;;;;;;;24.31;48.24;100760.84;4920839;29;20052;-87
2021/07/26 10:49:50;;;;;;;14.70;13.18;;;;;;;24.33;47.11;100760.69;4921253;29;20044;-86
2021/07/26 10:52:22;;;;;;;13.07;11.65;;;;;;;24.29;47.01;100765.50;4921237;29;20052;-82
2021/07/26 10:54:50;;;;;;;14.80;13.32;;;;;;;24.09;47.75;100724.72;4919117;29;20064;-81
2021/07/26 10:57:39;;;;;;;14.73;13.15;;;;;;;24.11;47.94;100758.25;4918579;29;20131;-81
2021/07/26 11:00:12;;;;;;;12.77;11.45;;;;;;;24.15;47.62;100753.47;4918465;29;20062;-83
2021/07/26 11:02:42;;;;;;;12.30;11.10;;;;;;;24.49;46.21;100746.75;4918044;29;20056;-82
2021/07/26 11:05:27;;;;;;;12.68;11.35;;;;;;;24.55;46.22;100741.63;4918113;29;20051;-83
2021/07/26 11:08:15;;;;;;;15.23;10.05;;;;;;;24.72;45.36;100745.38;4918917;29;20059;-84
2021/07/26 11:10:47;;;;;;;10.77;9.68;;;;;;;24.42;46.00;100733.97;4918790;29;20044;-88
2021/07/26 11:13:14;;;;;;;10.75;9.68;;;;;;;24.74;45.32;100747.88;4919006;29;20183;-86
2021/07/26 11:15:46;;;;;;;11.30;10.20;;;;;;;24.77;45.08;100743.09;4919204;29;20048;-87
2021/07/26 11:18:16;;;;;;;11.52;10.20;;;;;;;24.84;44.91;100734.47;4919000;29;20052;-84